createdAt,value
2023-09-05T00:00:05.203Z,43.73
2023-09-05T00:02:31.545Z,43.66
2023-09-05T00:04:57.961Z,43.88
2023-09-05T00:07:24.771Z,43.66
2023-09-05T00:09:51.100Z,43.71
2023-09-05T00:12:17.407Z,43.86
2023-09-05T00:14:43.719Z,43.84
2023-09-05T00:17:09.992Z,43.89
2023-09-05T00:19:36.286Z,43.90
2023-09-05T00:22:02.634Z,43.66
2023-09-05T00:24:39.334Z,43.88
2023-09-05T00:27:13.000Z,43.76
2023-09-05T00:29:40.360Z,43.58
2023-09-05T00:32:06.744Z,43.87
2023-09-05T00:34:37.386Z,43.87
2023-09-05T00:37:04.984Z,43.59
2023-09-05T00:39:31.575Z,43.87
2023-09-05T00:41:58.084Z,44.01
2023-09-05T00:44:24.876Z,44.06
2023-09-05T00:46:51.524Z,43.87
2023-09-05T00:49:17.812Z,43.72
2023-09-05T00:51:47.138Z,43.81
2023-09-05T00:54:13.509Z,43.73
2023-09-05T00:56:40.109Z,43.72
2023-09-05T00:59:06.701Z,43.99
2023-09-05T01:01:33.115Z,43.87
2023-09-05T01:03:59.536Z,43.67
2023-09-05T01:06:38.479Z,44.00
2023-09-05T01:09:26.145Z,43.58
2023-09-05T01:11:53.594Z,43.72
2023-09-05T01:14:19.854Z,43.83
2023-09-05T01:16:46.426Z,43.88
2023-09-05T01:19:16.063Z,44.08
2023-09-05T01:22:02.608Z,44.03
2023-09-05T01:24:28.949Z,43.93
2023-09-05T01:26:55.921Z,43.89
2023-09-05T01:29:36.055Z,44.09
2023-09-05T01:32:03.428Z,43.88
2023-09-05T01:34:30.585Z,44.27
2023-09-05T01:36:57.030Z,43.90
2023-09-05T01:39:23.348Z,44.37
2023-09-05T01:41:49.996Z,44.19
2023-09-05T01:44:16.641Z,44.29
2023-09-05T01:46:43.181Z,44.65
2023-09-05T01:49:09.800Z,44.56
2023-09-05T01:51:36.236Z,44.47
2023-09-05T01:54:02.559Z,44.84
2023-09-05T01:56:28.859Z,44.52
2023-09-05T01:58:55.276Z,44.86
2023-09-05T02:01:21.664Z,44.94
2023-09-05T02:03:49.079Z,44.66
2023-09-05T02:06:15.489Z,44.92
2023-09-05T02:08:41.976Z,45.02
2023-09-05T02:11:12.002Z,45.15
2023-09-05T02:13:38.329Z,44.97
2023-09-05T02:16:04.841Z,45.06
2023-09-05T02:18:31.145Z,45.12
2023-09-05T02:20:57.968Z,45.11
2023-09-05T02:23:24.572Z,45.18
2023-09-05T02:26:00.848Z,45.02
2023-09-05T02:28:27.517Z,45.30
2023-09-05T02:30:54.206Z,45.21
2023-09-05T02:33:20.951Z,45.38
2023-09-05T02:35:47.352Z,45.35
2023-09-05T02:38:16.409Z,45.41
2023-09-05T02:40:48.841Z,45.20
2023-09-05T02:43:15.152Z,45.29
2023-09-05T02:45:41.573Z,45.47
2023-09-05T02:48:08.714Z,45.41
2023-09-05T02:50:35.227Z,45.60
2023-09-05T02:53:01.495Z,45.53
2023-09-05T02:55:27.815Z,45.75
2023-09-05T02:57:55.193Z,45.61
2023-09-05T03:00:21.702Z,45.70
2023-09-05T03:02:50.478Z,45.73
2023-09-05T03:05:16.906Z,45.88
2023-09-05T03:07:43.214Z,45.80
2023-09-05T03:10:09.709Z,45.81
2023-09-05T03:12:36.044Z,45.79
2023-09-05T03:15:02.387Z,46.06
2023-09-05T03:17:28.728Z,45.90
2023-09-05T03:19:55.116Z,46.08
2023-09-05T03:22:21.461Z,46.00
2023-09-05T03:24:47.916Z,45.96
2023-09-05T03:27:14.523Z,46.07
2023-09-05T03:29:40.877Z,46.05
2023-09-05T03:32:07.172Z,46.10
2023-09-05T03:34:35.124Z,46.14
2023-09-05T03:37:01.402Z,46.31
2023-09-05T03:39:27.711Z,46.25
2023-09-05T03:41:54.093Z,46.34
2023-09-05T03:44:20.366Z,46.42
2023-09-05T03:46:46.767Z,46.39
2023-09-05T03:49:13.172Z,46.39
2023-09-05T03:51:39.438Z,46.55
2023-09-05T03:54:05.933Z,46.49
2023-09-05T03:56:32.305Z,46.61
2023-09-05T03:58:58.609Z,46.49
2023-09-05T04:01:25.615Z,46.64
2023-09-05T04:03:51.985Z,46.71
2023-09-05T04:06:18.946Z,46.73
2023-09-05T04:08:45.528Z,46.78
2023-09-05T04:11:11.940Z,46.79
2023-09-05T04:13:38.242Z,46.76
2023-09-05T04:16:08.604Z,46.77
2023-09-05T04:18:35.664Z,46.95
2023-09-05T04:21:02.141Z,46.96
2023-09-05T04:23:28.870Z,46.99
2023-09-05T04:25:56.589Z,47.11
2023-09-05T04:28:22.901Z,47.08
2023-09-05T04:30:49.267Z,47.02
2023-09-05T04:33:15.628Z,47.03
2023-09-05T04:35:41.971Z,47.17
2023-09-05T04:38:08.352Z,47.21
2023-09-05T04:40:34.657Z,47.25
2023-09-05T04:43:00.919Z,47.23
2023-09-05T04:45:27.225Z,47.38
2023-09-05T04:47:54.033Z,47.27
2023-09-05T04:50:20.389Z,47.35
2023-09-05T04:52:46.697Z,47.33
2023-09-05T04:55:13.097Z,47.36
2023-09-05T04:57:43.108Z,47.19
2023-09-05T05:00:11.095Z,47.36
2023-09-05T05:02:37.651Z,47.52
2023-09-05T05:05:04.147Z,47.55
2023-09-05T05:07:30.652Z,47.56
2023-09-05T05:09:56.985Z,47.55
2023-09-05T05:12:23.351Z,47.69
2023-09-05T05:14:49.652Z,47.62
2023-09-05T05:17:16.050Z,47.74
2023-09-05T05:19:42.576Z,47.73
2023-09-05T05:22:09.120Z,47.82
2023-09-05T05:24:36.392Z,47.80
2023-09-05T05:27:02.764Z,47.82
2023-09-05T05:29:33.381Z,47.91
2023-09-05T05:32:01.464Z,47.99
2023-09-05T05:34:27.977Z,47.91
2023-09-05T05:36:54.301Z,47.93
2023-09-05T05:39:23.229Z,47.88
2023-09-05T05:41:49.911Z,47.95
2023-09-05T05:44:16.823Z,48.10
2023-09-05T05:46:44.902Z,47.98
2023-09-05T05:49:11.520Z,48.00
2023-09-05T05:51:38.408Z,48.00
2023-09-05T05:54:04.725Z,48.04
2023-09-05T05:56:31.106Z,47.95
2023-09-05T05:58:57.382Z,48.00
2023-09-05T06:01:23.712Z,48.03
2023-09-05T06:03:50.032Z,48.00
2023-09-05T06:06:16.501Z,48.06
2023-09-05T06:08:43.067Z,48.00
2023-09-05T06:11:09.527Z,48.04
2023-09-05T06:13:35.880Z,48.08
2023-09-05T06:16:02.265Z,47.98
2023-09-05T06:18:29.079Z,48.09
2023-09-05T06:20:55.988Z,47.91
2023-09-05T06:23:22.506Z,47.93
2023-09-05T06:25:48.910Z,48.06
2023-09-05T06:28:15.305Z,47.92
2023-09-05T06:30:41.621Z,47.84
2023-09-05T06:33:07.967Z,47.88
2023-09-05T06:35:35.967Z,47.74
2023-09-05T06:38:02.271Z,47.79
2023-09-05T06:40:28.563Z,47.61
2023-09-05T06:42:55.045Z,47.74
2023-09-05T06:45:22.067Z,47.61
2023-09-05T06:47:48.541Z,47.58
2023-09-05T06:50:14.842Z,47.49
2023-09-05T06:52:41.229Z,47.26
2023-09-05T06:55:07.812Z,47.12
2023-09-05T06:57:34.392Z,47.30
2023-09-05T07:00:00.807Z,47.07
2023-09-05T07:02:27.086Z,47.12
2023-09-05T07:04:53.447Z,46.98
2023-09-05T07:07:20.069Z,46.98
2023-09-05T07:09:46.325Z,46.91
2023-09-05T07:12:13.058Z,46.99
2023-09-05T07:14:39.378Z,46.68
2023-09-05T07:17:08.268Z,46.54
2023-09-05T07:19:34.616Z,46.79
2023-09-05T07:22:00.888Z,46.46
2023-09-05T07:24:27.258Z,46.54
2023-09-05T07:26:54.080Z,46.64
2023-09-05T07:29:20.429Z,46.33
2023-09-05T07:31:46.796Z,46.39
2023-09-05T07:34:13.172Z,46.50
2023-09-05T07:36:42.186Z,46.54
2023-09-05T07:39:08.749Z,46.10
2023-09-05T07:41:35.036Z,46.07
2023-09-05T07:44:04.180Z,46.15
2023-09-05T07:46:30.577Z,45.93
2023-09-05T07:48:56.933Z,45.79
2023-09-05T07:51:24.169Z,46.05
2023-09-05T07:54:04.447Z,45.65
2023-09-05T07:56:31.500Z,45.62
2023-09-05T07:58:57.894Z,45.53
2023-09-05T08:01:25.077Z,45.71
2023-09-05T08:03:52.089Z,45.46
2023-09-05T08:06:18.638Z,45.47
2023-09-05T08:08:44.968Z,45.59
2023-09-05T08:11:11.282Z,45.35
2023-09-05T08:13:37.603Z,45.38
2023-09-05T08:16:04.983Z,45.35
2023-09-05T08:18:31.526Z,45.57
2023-09-05T08:21:00.977Z,45.37
2023-09-05T08:23:27.593Z,45.03
2023-09-05T08:25:57.463Z,45.47
2023-09-05T08:28:23.766Z,45.35
2023-09-05T08:30:50.088Z,44.99
2023-09-05T08:33:16.500Z,45.23
2023-09-05T08:35:42.847Z,45.19
2023-09-05T08:38:09.143Z,44.94
2023-09-05T08:40:35.836Z,45.14
2023-09-05T08:43:02.626Z,44.95
2023-09-05T08:45:30.574Z,44.93
2023-09-05T08:47:58.780Z,44.85
2023-09-05T08:50:27.312Z,45.03
2023-09-05T08:52:54.228Z,44.91
2023-09-05T08:55:22.279Z,44.98
2023-09-05T08:57:48.942Z,44.84
2023-09-05T09:00:19.051Z,44.67
2023-09-05T09:02:45.590Z,44.45
2023-09-05T09:05:12.000Z,44.56
2023-09-05T09:07:39.094Z,44.49
2023-09-05T09:10:16.986Z,44.46
2023-09-05T09:12:44.331Z,44.24
2023-09-05T09:15:13.741Z,44.47
2023-09-05T09:17:43.670Z,44.44
2023-09-05T09:20:13.322Z,44.13
2023-09-05T09:22:40.383Z,43.96
2023-09-05T09:25:11.866Z,44.09
2023-09-05T09:27:38.244Z,43.90
2023-09-05T09:30:07.900Z,43.49
2023-09-05T09:32:34.808Z,43.60
2023-09-05T09:35:03.780Z,43.68
2023-09-05T09:37:31.037Z,43.45
2023-09-05T09:39:57.877Z,43.59
2023-09-05T09:42:27.203Z,43.48
2023-09-05T09:44:53.888Z,43.35
2023-09-05T09:47:20.267Z,43.26
2023-09-05T09:49:48.538Z,43.56
2023-09-05T09:52:16.294Z,43.50
2023-09-05T09:54:44.923Z,43.59
2023-09-05T09:57:14.250Z,43.38
2023-09-05T10:00:00.828Z,43.47
2023-09-05T10:02:27.914Z,43.41
2023-09-05T10:04:54.764Z,43.14
2023-09-05T10:07:22.111Z,42.85
2023-09-05T10:09:50.548Z,42.71
2023-09-05T10:12:24.604Z,42.60
2023-09-05T10:14:52.353Z,42.53
2023-09-05T10:17:20.872Z,42.67
2023-09-05T10:19:47.497Z,42.24
2023-09-05T10:22:17.760Z,42.17
2023-09-05T10:24:44.691Z,41.93
2023-09-05T10:27:11.931Z,41.93
2023-09-05T10:29:45.319Z,41.58
2023-09-05T10:32:15.073Z,41.81
2023-09-05T10:34:59.280Z,41.66
2023-09-05T10:37:28.958Z,41.76
2023-09-05T10:39:57.081Z,41.22
2023-09-05T10:42:30.191Z,41.18
2023-09-05T10:44:57.316Z,41.17
2023-09-05T10:47:24.563Z,41.38
2023-09-05T10:49:57.285Z,41.06
2023-09-05T10:52:23.666Z,41.02
2023-09-05T10:54:50.322Z,41.42
2023-09-05T10:57:36.009Z,41.28
2023-09-05T11:00:30.133Z,40.74
2023-09-05T11:02:57.570Z,41.12
2023-09-05T11:05:28.045Z,40.80
2023-09-05T11:07:56.463Z,40.50
2023-09-05T11:10:30.077Z,40.55
2023-09-05T11:12:57.010Z,40.87
2023-09-05T11:15:33.187Z,40.77
2023-09-05T11:18:00.555Z,40.62
2023-09-05T11:20:40.462Z,40.96
2023-09-05T11:23:23.147Z,40.88
2023-09-05T11:25:51.730Z,40.60
2023-09-05T11:28:18.098Z,40.68
2023-09-05T11:30:46.705Z,40.44
2023-09-05T11:33:16.474Z,40.26
2023-09-05T11:35:42.931Z,40.21
2023-09-05T11:38:09.989Z,39.86
2023-09-05T11:40:36.727Z,40.04
2023-09-05T11:43:07.281Z,40.20
2023-09-05T11:45:38.334Z,39.71
2023-09-05T11:48:09.955Z,40.04
2023-09-05T11:50:36.347Z,39.62
2023-09-05T11:53:03.720Z,39.93
2023-09-05T11:55:30.479Z,39.85
2023-09-05T11:57:57.865Z,39.82
2023-09-05T12:00:24.930Z,39.64
2023-09-05T12:02:55.410Z,39.38
2023-09-05T12:05:21.796Z,39.27
2023-09-05T12:07:54.623Z,39.55
2023-09-05T12:10:21.371Z,39.31
2023-09-05T12:12:54.985Z,39.34
2023-09-05T12:15:31.330Z,39.12
2023-09-05T12:17:58.791Z,39.25
2023-09-05T12:20:25.192Z,39.14
2023-09-05T12:22:51.486Z,39.28
2023-09-05T12:25:20.923Z,38.85
2023-09-05T12:27:50.622Z,39.01
2023-09-05T12:30:27.169Z,38.92
2023-09-05T12:32:54.570Z,38.66
2023-09-05T12:35:20.914Z,38.71
2023-09-05T12:37:47.219Z,38.32
2023-09-05T12:40:16.151Z,38.80
2023-09-05T12:42:45.553Z,38.57
2023-09-05T12:45:13.140Z,38.32
2023-09-05T12:47:39.827Z,38.40
2023-09-05T12:50:12.978Z,38.49
2023-09-05T12:52:40.646Z,38.27
2023-09-05T12:55:07.462Z,38.22
2023-09-05T12:57:33.861Z,38.25
2023-09-05T13:00:01.998Z,38.19
2023-09-05T13:02:28.398Z,38.11
2023-09-05T13:04:54.744Z,38.37
2023-09-05T13:07:21.088Z,37.83
2023-09-05T13:09:47.389Z,38.17
2023-09-05T13:12:13.768Z,38.02
2023-09-05T13:14:40.136Z,37.92
2023-09-05T13:17:06.465Z,37.53
2023-09-05T13:19:32.834Z,37.83
2023-09-05T13:21:59.204Z,37.79
2023-09-05T13:24:26.112Z,37.86
2023-09-05T13:26:54.973Z,37.72
2023-09-05T13:29:22.545Z,37.63
2023-09-05T13:31:49.096Z,37.65
2023-09-05T13:34:15.513Z,37.57
2023-09-05T13:36:42.000Z,37.40
2023-09-05T13:39:09.535Z,37.44
2023-09-05T13:41:36.164Z,37.75
2023-09-05T13:44:02.668Z,37.49
2023-09-05T13:46:29.185Z,37.49
2023-09-05T13:48:55.580Z,37.21
2023-09-05T13:51:23.499Z,37.30
2023-09-05T13:53:50.250Z,37.22
2023-09-05T13:56:16.723Z,37.33
2023-09-05T13:58:43.486Z,37.01
2023-09-05T14:01:09.930Z,37.05
2023-09-05T14:03:36.394Z,37.04
2023-09-05T14:06:02.955Z,37.03
2023-09-05T14:08:29.721Z,37.16
2023-09-05T14:10:56.611Z,37.02
2023-09-05T14:13:23.032Z,36.91
2023-09-05T14:15:49.349Z,37.02
2023-09-05T14:18:15.963Z,36.51
2023-09-05T14:20:42.420Z,36.77
2023-09-05T14:23:08.809Z,36.77
2023-09-05T14:25:35.387Z,36.46
2023-09-05T14:28:05.353Z,36.51
2023-09-05T14:30:32.345Z,36.39
2023-09-05T14:32:59.017Z,36.62
2023-09-05T14:35:25.335Z,36.41
2023-09-05T14:37:51.586Z,36.63
2023-09-05T14:40:18.289Z,36.41
2023-09-05T14:42:44.703Z,36.59
2023-09-05T14:45:11.757Z,36.25
2023-09-05T14:47:38.299Z,36.33
2023-09-05T14:50:11.224Z,36.56
2023-09-05T14:52:45.839Z,36.27
2023-09-05T14:55:18.251Z,36.32
2023-09-05T14:57:44.706Z,36.00
2023-09-05T15:00:12.858Z,36.29
2023-09-05T15:02:39.676Z,36.26
2023-09-05T15:05:07.544Z,36.07
2023-09-05T15:07:37.041Z,36.12
2023-09-05T15:10:11.232Z,36.23
2023-09-05T15:12:46.964Z,36.14
2023-09-05T15:15:15.691Z,36.16
2023-09-05T15:17:43.623Z,35.72
2023-09-05T15:20:22.502Z,35.93
2023-09-05T15:22:59.615Z,35.73
2023-09-05T15:25:30.104Z,35.84
2023-09-05T15:27:56.510Z,35.91
2023-09-05T15:30:23.053Z,35.92
2023-09-05T15:32:49.462Z,35.93
2023-09-05T15:35:20.627Z,35.85
2023-09-05T15:37:47.169Z,35.84
2023-09-05T15:40:21.304Z,35.84
2023-09-05T15:45:58.605Z,35.81
2023-09-05T15:48:28.712Z,35.61
2023-09-05T15:51:05.436Z,35.75
2023-09-05T15:53:46.376Z,35.67
2023-09-05T15:56:24.514Z,35.59
2023-09-05T15:58:54.746Z,35.68
2023-09-05T16:01:33.451Z,35.54
2023-09-05T16:09:50.109Z,35.69
2023-09-05T16:15:00.190Z,35.81
2023-09-05T16:17:44.172Z,35.84
2023-09-05T16:20:11.393Z,35.77
2023-09-05T16:22:38.126Z,35.96
2023-09-05T16:25:04.820Z,35.97
2023-09-05T16:27:31.450Z,36.02
2023-09-05T16:29:57.824Z,35.60
2023-09-05T16:32:24.281Z,35.80
2023-09-05T16:34:56.813Z,35.23
2023-09-05T16:37:23.321Z,35.44
2023-09-05T16:39:49.728Z,35.03
2023-09-05T16:42:16.119Z,35.02
2023-09-05T16:44:42.499Z,34.86
2023-09-05T16:47:09.019Z,35.27
2023-09-05T16:49:36.700Z,35.06
2023-09-05T16:52:03.121Z,35.14
2023-09-05T16:54:40.781Z,34.74
2023-09-05T16:57:07.208Z,35.31
2023-09-05T16:59:33.580Z,34.77
2023-09-05T17:02:01.972Z,34.76
2023-09-05T17:04:28.427Z,34.90
2023-09-05T17:06:55.602Z,34.80
2023-09-05T17:09:22.320Z,34.29
2023-09-05T17:11:51.637Z,34.24
2023-09-05T17:14:19.742Z,34.55
2023-09-05T17:16:46.167Z,34.31
2023-09-05T17:19:12.587Z,34.63
2023-09-05T17:21:52.619Z,33.92
2023-09-05T17:24:19.569Z,33.87
2023-09-05T17:26:45.944Z,33.65
2023-09-05T17:29:13.543Z,33.22
2023-09-05T17:31:40.138Z,33.60
2023-09-05T17:34:08.098Z,33.47
2023-09-05T17:36:35.717Z,33.15
2023-09-05T17:39:02.278Z,33.05
2023-09-05T17:41:28.811Z,33.45
2023-09-05T17:43:57.687Z,33.72
2023-09-05T17:49:09.076Z,33.80
2023-09-05T17:51:36.015Z,33.81
2023-09-05T17:54:02.520Z,33.76
2023-09-05T17:56:39.701Z,33.97
2023-09-05T17:59:06.434Z,33.81
2023-09-05T18:01:32.972Z,34.13
2023-09-05T18:04:06.722Z,34.13
2023-09-05T18:06:47.872Z,33.93
2023-09-05T18:09:31.050Z,34.18
2023-09-05T18:11:58.047Z,34.40
2023-09-05T18:14:47.066Z,34.53
2023-09-05T18:17:13.578Z,34.36
2023-09-05T18:19:46.965Z,34.36
2023-09-05T18:22:13.528Z,34.24
2023-09-05T18:24:42.678Z,34.45
2023-09-05T18:27:11.182Z,34.70
2023-09-05T18:29:37.615Z,34.68
2023-09-05T18:32:04.175Z,34.49
2023-09-05T18:34:46.381Z,35.00
2023-09-05T18:37:16.596Z,34.99
2023-09-05T18:39:43.477Z,35.28
2023-09-05T18:42:12.053Z,34.88
2023-09-05T18:44:40.068Z,35.44
2023-09-05T18:47:08.389Z,35.61
2023-09-05T18:49:35.624Z,35.18
2023-09-05T18:52:07.119Z,35.40
2023-09-05T18:54:34.978Z,35.64
2023-09-05T18:57:01.531Z,35.44
2023-09-05T18:59:28.693Z,35.63
2023-09-05T19:01:55.458Z,35.69
2023-09-05T19:04:22.499Z,35.64
2023-09-05T19:06:49.995Z,35.72
2023-09-05T19:09:18.802Z,36.05
2023-09-05T19:11:46.408Z,36.20
2023-09-05T19:14:12.878Z,36.07
2023-09-05T19:16:39.720Z,35.98
2023-09-05T19:19:06.911Z,36.08
2023-09-05T19:21:35.426Z,36.36
2023-09-05T19:24:02.490Z,36.40
2023-09-05T19:26:28.915Z,36.71
2023-09-05T19:28:55.304Z,36.76
2023-09-05T19:31:21.638Z,36.52
2023-09-05T19:33:48.181Z,36.99
2023-09-05T19:36:14.645Z,36.80
2023-09-05T19:38:41.108Z,36.86
2023-09-05T19:41:08.788Z,36.84
2023-09-05T19:43:35.256Z,36.89
2023-09-05T19:46:01.664Z,36.94
2023-09-05T19:48:28.372Z,37.00
2023-09-05T19:50:58.011Z,37.24
2023-09-05T19:53:24.639Z,37.36
2023-09-05T19:55:51.232Z,37.26
2023-09-05T19:58:18.859Z,37.30
2023-09-05T20:00:45.867Z,37.18
2023-09-05T20:03:14.059Z,37.23
2023-09-05T20:05:40.928Z,37.28
2023-09-05T20:08:07.460Z,37.33
2023-09-05T20:10:33.772Z,37.67
2023-09-05T20:13:00.166Z,37.49
2023-09-05T20:15:26.781Z,37.57
2023-09-05T20:18:34.231Z,37.71
2023-09-05T20:21:02.195Z,37.66
2023-09-05T20:23:28.550Z,37.80
2023-09-05T20:25:54.944Z,37.84
2023-09-05T20:28:21.500Z,37.95
2023-09-05T20:30:51.456Z,37.84
2023-09-05T20:33:18.289Z,37.85
2023-09-05T20:35:44.797Z,38.00
2023-09-05T20:38:12.792Z,37.92
2023-09-05T20:40:39.179Z,37.96
2023-09-05T20:43:05.622Z,38.05
2023-09-05T20:45:33.427Z,38.00
2023-09-05T20:47:59.828Z,38.00
2023-09-05T20:50:26.262Z,37.95
2023-09-05T20:52:52.788Z,38.11
2023-09-05T20:55:19.544Z,38.10
2023-09-05T20:57:45.939Z,38.19
2023-09-05T21:00:12.827Z,38.15
2023-09-05T21:02:39.334Z,38.38
2023-09-05T21:05:06.548Z,38.19
2023-09-05T21:07:36.247Z,38.25
2023-09-05T21:10:04.628Z,38.33
2023-09-05T21:12:31.385Z,38.54
2023-09-05T21:14:58.979Z,38.46
2023-09-05T21:17:25.561Z,38.42
2023-09-05T21:19:52.570Z,38.36
2023-09-05T21:22:23.222Z,38.38
2023-09-05T21:24:51.224Z,38.49
2023-09-05T21:27:17.753Z,38.54
2023-09-05T21:29:44.196Z,38.51
2023-09-05T21:32:11.000Z,38.78
2023-09-05T21:34:38.038Z,38.53
2023-09-05T21:37:04.888Z,38.75
2023-09-05T21:39:33.215Z,38.91
2023-09-05T21:41:59.574Z,38.65
2023-09-05T21:44:25.900Z,38.75
2023-09-05T21:46:52.314Z,39.21
2023-09-05T21:49:18.637Z,39.19
2023-09-05T21:51:45.081Z,38.97
2023-09-05T21:54:11.634Z,39.14
2023-09-05T21:56:39.047Z,39.02
2023-09-05T21:59:05.539Z,39.15
2023-09-05T22:01:34.466Z,39.34
2023-09-05T22:04:01.403Z,39.33
2023-09-05T22:06:28.190Z,39.38
2023-09-05T22:09:01.375Z,39.15
2023-09-05T22:11:28.517Z,39.31
2023-09-05T22:13:55.013Z,39.28
2023-09-05T22:16:21.451Z,39.50
2023-09-05T22:18:47.913Z,39.35
2023-09-05T22:21:15.420Z,39.73
2023-09-05T22:23:41.895Z,39.96
2023-09-05T22:26:09.175Z,39.70
2023-09-05T22:28:35.898Z,39.89
2023-09-05T22:31:05.709Z,39.89
2023-09-05T22:33:32.765Z,39.99
2023-09-05T22:35:59.673Z,40.06
2023-09-05T22:38:29.262Z,39.83
2023-09-05T22:40:58.934Z,40.16
2023-09-05T22:43:25.684Z,40.10
2023-09-05T22:45:52.132Z,40.22
2023-09-05T22:48:18.731Z,40.01
2023-09-05T22:50:55.105Z,40.46
2023-09-05T22:53:21.515Z,40.40
2023-09-05T22:55:48.421Z,40.12
2023-09-05T22:58:22.675Z,40.64
2023-09-05T23:00:50.572Z,40.68
2023-09-05T23:03:20.372Z,40.31
2023-09-05T23:05:46.884Z,40.76
2023-09-05T23:08:13.209Z,40.78
2023-09-05T23:10:43.010Z,40.88
2023-09-05T23:13:09.451Z,40.85
2023-09-05T23:15:35.837Z,40.45
2023-09-05T23:18:02.409Z,40.75
2023-09-05T23:20:35.457Z,40.60
2023-09-05T23:23:02.431Z,41.10
2023-09-05T23:25:30.273Z,40.79
2023-09-05T23:27:56.723Z,40.88
2023-09-05T23:30:23.301Z,40.96
2023-09-05T23:32:50.574Z,41.07
2023-09-05T23:35:22.313Z,41.27
2023-09-05T23:37:48.773Z,40.96
2023-09-05T23:40:20.067Z,41.45
2023-09-05T23:42:46.534Z,41.06
2023-09-05T23:45:16.219Z,41.48
2023-09-05T23:47:51.310Z,41.58
2023-09-05T23:50:27.618Z,41.56
2023-09-05T23:52:54.349Z,41.25
2023-09-05T23:55:27.424Z,41.56
2023-09-05T23:57:59.904Z,41.33
